Time;durP1;ratioP1;P1;durP2;ratioP2;P2;SDS_P1;SDS_P2;PMS_P1;PMS_P2;Temp;Humidity;BMP_temperature;BMP_pressure;BME280_temperature;BME280_humidity;BME280_pressure;Samples;Min_cycle;Max_cycle;Signal;HPM_P1;HPM_P2
2022/11/04 00:01:48;;;;;;;5.18;0.75;;;;;;;14.34;71.03;100153.13;5012512;28;20026;-45
2022/11/04 00:04:16;;;;;;;2.05;0.70;;;;;;;14.31;71.10;100157.56;5012795;28;20036;-44
2022/11/04 00:06:41;;;;;;;5.03;0.73;;;;;;;14.22;72.08;100155.91;5013182;28;20028;-47
2022/11/04 00:09:09;;;;;;;3.58;0.90;;;;;;;14.31;71.07;100161.03;5013189;28;20401;-41
2022/11/04 00:14:19;;;;;;;4.20;0.70;;;;;;;14.25;71.75;100176.00;5012490;28;20099;-43
2022/11/04 00:28:41;;;;;;;3.75;0.63;;;;;;;13.88;70.40;100186.03;5012852;28;20402;-43
2022/11/04 00:30:28;;;;;;;2.00;0.60;;;;;;;14.31;67.53;100178.53;5012185;28;20202;-44
2022/11/04 00:35:37;;;;;;;2.92;0.50;;;;;;;14.20;67.59;100183.91;5013081;28;20394;-44
2022/11/04 00:38:02;;;;;;;2.05;0.43;;;;;;;14.15;67.33;100177.84;5012332;28;20422;-46
2022/11/04 00:40:28;;;;;;;2.13;0.50;;;;;;;14.03;67.68;100183.22;5012753;28;20479;-43
2022/11/04 00:42:53;;;;;;;2.45;0.45;;;;;;;13.90;67.86;100186.91;5011655;28;20026;-48
2022/11/04 00:45:18;;;;;;;2.05;0.50;;;;;;;13.82;67.45;100182.59;5011616;28;20110;-42
2022/11/04 00:47:43;;;;;;;2.78;0.45;;;;;;;13.81;67.75;100183.47;5011945;28;20026;-46
2022/11/04 00:50:09;;;;;;;2.22;0.35;;;;;;;13.78;67.58;100180.88;5011950;28;20034;-43
2022/11/04 00:52:34;;;;;;;2.78;0.40;;;;;;;13.51;68.75;100186.41;5011351;28;20040;-43
2022/11/04 00:54:59;;;;;;;2.17;0.52;;;;;;;13.57;68.96;100190.72;5012359;28;20022;-43
2022/11/04 00:57:25;;;;;;;3.95;0.50;;;;;;;13.57;68.39;100199.44;5011743;28;20033;-43
2022/11/04 00:59:50;;;;;;;4.32;0.70;;;;;;;13.55;68.79;100206.44;5011719;28;20025;-46
2022/11/04 01:02:15;;;;;;;4.78;0.80;;;;;;;13.57;68.82;100209.94;5011321;28;20454;-45
2022/11/04 01:04:40;;;;;;;2.20;0.70;;;;;;;13.64;69.09;100215.97;5011421;28;20033;-44
2022/11/04 01:07:06;;;;;;;2.75;0.50;;;;;;;13.69;69.33;100212.44;5012049;28;20125;-43
2022/11/04 01:09:31;;;;;;;4.25;0.60;;;;;;;13.74;69.47;100215.00;5012040;28;20018;-44
2022/11/04 01:11:57;;;;;;;3.67;0.70;;;;;;;13.70;69.79;100221.16;5011008;28;20030;-45
2022/11/04 01:14:23;;;;;;;4.70;0.60;;;;;;;13.85;69.88;100230.59;5011384;28;20026;-46
2022/11/04 01:16:49;;;;;;;3.83;0.70;;;;;;;13.91;69.90;100241.88;5012144;28;20402;-42
2022/11/04 01:19:14;;;;;;;4.05;0.73;;;;;;;14.01;69.87;100240.94;5012331;28;20374;-45
2022/11/04 01:21:39;;;;;;;1.88;0.70;;;;;;;14.12;69.95;100243.44;5010968;28;20040;-44
2022/11/04 01:24:05;;;;;;;4.82;0.70;;;;;;;14.15;70.38;100239.00;5011835;28;20026;-45
2022/11/04 01:26:31;;;;;;;3.25;0.80;;;;;;;13.76;72.05;100244.69;5013394;28;20504;-44
2022/11/04 01:28:58;;;;;;;3.47;0.90;;;;;;;13.85;71.46;100254.19;4995670;28;20030;-42
2022/11/04 01:31:27;;;;;;;5.63;1.00;;;;;;;14.14;70.59;100247.78;5011342;28;20497;-45
2022/11/04 01:33:53;;;;;;;2.63;1.02;;;;;;;14.37;69.57;100246.63;5011399;28;20022;-42
2022/11/04 01:36:19;;;;;;;3.38;0.88;;;;;;;14.44;69.25;100250.97;5011097;28;20030;-44
2022/11/04 01:38:44;;;;;;;3.97;0.90;;;;;;;14.41;69.18;100249.22;5010967;28;20457;-46
2022/11/04 01:41:20;;;;;;;4.05;0.70;;;;;;;14.03;69.98;100259.22;5010746;28;20088;-43
2022/11/04 01:43:54;;;;;;;4.03;0.80;;;;;;;14.15;69.28;100261.72;5011045;28;20109;-48
2022/11/04 01:46:48;;;;;;;2.58;0.70;;;;;;;14.18;68.74;100266.94;5012972;28;20497;-43
2022/11/04 01:49:27;;;;;;;1.20;0.75;;;;;;;14.09;68.81;100272.28;5013788;28;20048;-43
2022/11/04 01:51:59;;;;;;;1.30;0.40;;;;;;;14.25;68.57;100279.13;5011400;28;20036;-43
2022/11/04 01:54:25;;;;;;;1.17;0.43;;;;;;;14.31;67.77;100280.78;5011321;28;20057;-44
2022/11/04 01:56:50;;;;;;;1.60;0.60;;;;;;;14.29;67.67;100285.19;5010887;28;20029;-43
2022/11/04 01:59:24;;;;;;;1.40;0.50;;;;;;;14.34;67.15;100279.00;5010877;28;20037;-43
2022/11/04 02:01:50;;;;;;;1.63;0.40;;;;;;;14.21;67.36;100273.00;5010346;28;20500;-48
2022/11/04 02:04:25;;;;;;;2.10;0.50;;;;;;;14.26;67.34;100279.97;5010625;28;20034;-49
2022/11/04 02:06:53;;;;;;;1.05;0.55;;;;;;;13.95;68.55;100288.16;5010555;28;20029;-44
2022/11/04 02:09:19;;;;;;;3.53;0.65;;;;;;;14.19;68.15;100284.41;5010200;28;20033;-42
2022/11/04 02:14:29;;;;;;;2.07;0.90;;;;;;;14.04;68.94;100282.81;5010094;28;20036;-46
2022/11/04 02:17:06;;;;;;;2.33;0.80;;;;;;;14.11;68.69;100289.72;5010228;28;20272;-42
2022/11/04 02:19:40;;;;;;;3.22;0.90;;;;;;;13.85;69.48;100296.09;5010522;28;20036;-43
2022/11/04 02:22:27;;;;;;;7.13;1.20;;;;;;;13.88;70.22;100310.06;4992399;28;20025;-43
2022/11/04 02:25:04;;;;;;;3.85;1.02;;;;;;;13.84;70.66;100312.72;5010692;28;20558;-48
2022/11/04 02:27:51;;;;;;;5.63;1.50;;;;;;;13.94;70.33;100319.63;5010326;28;20308;-44
2022/11/04 02:30:18;;;;;;;6.32;1.65;;;;;;;14.04;70.08;100321.25;5010178;28;20034;-43
2022/11/04 02:32:57;;;;;;;4.65;1.42;;;;;;;14.07;70.24;100316.00;5010382;28;20025;-45
2022/11/04 02:35:46;;;;;;;5.32;2.00;;;;;;;13.93;70.11;100313.50;5010293;28;20044;-43
2022/11/04 02:38:21;;;;;;;5.05;2.25;;;;;;;14.19;69.65;100316.75;4993103;28;20080;-44
2022/11/04 02:41:01;;;;;;;4.15;2.10;;;;;;;14.28;69.41;100307.91;5013909;28;20100;-43
2022/11/04 02:43:38;;;;;;;4.57;2.10;;;;;;;14.34;69.26;100312.22;4996582;28;20021;-43
2022/11/04 02:46:18;;;;;;;5.25;2.60;;;;;;;14.32;69.57;100317.50;5014458;28;20040;-43
2022/11/04 02:49:00;;;;;;;8.07;2.67;;;;;;;14.32;69.59;100306.13;5015898;28;20022;-46
2022/11/04 02:51:34;;;;;;;6.18;2.78;;;;;;;14.03;70.64;100316.88;5013686;28;20117;-43
2022/11/04 02:54:14;;;;;;;6.40;2.78;;;;;;;14.15;70.49;100314.16;5013958;28;20037;-43
2022/11/04 02:56:45;;;;;;;7.72;3.38;;;;;;;14.00;70.60;100311.69;5014369;28;20097;-44
2022/11/04 02:59:19;;;;;;;6.30;3.20;;;;;;;14.21;70.11;100314.97;5015165;28;20021;-48
2022/11/04 03:01:48;;;;;;;7.20;3.40;;;;;;;14.33;69.64;100306.13;5015040;28;20034;-45
2022/11/04 03:04:16;;;;;;;7.50;3.30;;;;;;;14.34;69.91;100310.47;5015551;28;20029;-45
2022/11/04 03:06:46;;;;;;;7.30;3.85;;;;;;;14.36;69.68;100308.69;5015382;28;20033;-43
2022/11/04 03:09:14;;;;;;;9.25;4.18;;;;;;;14.33;70.04;100307.88;4998839;28;20036;-44
2022/11/04 03:11:43;;;;;;;10.10;4.00;;;;;;;14.33;69.93;100311.38;5039340;22;20046;-43
2022/11/04 03:14:17;;;;;;;7.10;4.20;;;;;;;14.31;69.60;100312.25;5016196;28;20080;-43
2022/11/04 03:16:50;;;;;;;7.60;4.40;;;;;;;14.28;69.57;100310.53;5015820;28;20096;-43
2022/11/04 03:19:33;;;;;;;9.02;4.90;;;;;;;14.21;69.48;100319.34;5016202;28;20021;-42
2022/11/04 03:22:08;;;;;;;10.20;5.07;;;;;;;14.15;69.02;100317.66;5015298;28;20076;-45
2022/11/04 03:24:34;;;;;;;10.60;5.60;;;;;;;13.91;69.89;100320.50;5016549;28;20073;-45
2022/11/04 03:27:13;;;;;;;9.05;5.22;;;;;;;13.98;69.42;100327.44;5016186;28;20033;-43
2022/11/04 03:29:49;;;;;;;10.98;5.10;;;;;;;13.98;69.41;100321.31;5016195;28;20033;-44
2022/11/04 03:32:42;;;;;;;10.43;5.30;;;;;;;13.94;69.50;100322.25;5015516;28;20026;-43
2022/11/04 03:35:10;;;;;;;13.88;6.30;;;;;;;13.85;69.81;100325.78;5015379;28;20041;-43
2022/11/04 03:37:35;;;;;;;12.30;5.93;;;;;;;13.78;69.41;100335.44;5015300;28;20022;-42
2022/11/04 03:40:01;;;;;;;11.85;5.97;;;;;;;13.76;69.51;100339.00;5015495;28;20080;-44
2022/11/04 03:42:28;;;;;;;11.48;6.25;;;;;;;13.69;69.66;100332.94;5013941;28;20060;-44
2022/11/04 03:44:58;;;;;;;11.27;6.00;;;;;;;13.65;69.64;100341.69;5015109;28;20026;-45
2022/11/04 03:47:26;;;;;;;12.48;6.25;;;;;;;13.61;69.79;100336.47;5015269;28;20076;-43
2022/11/04 03:49:56;;;;;;;14.70;6.78;;;;;;;13.57;70.01;100345.25;5015448;28;20410;-44
2022/11/04 03:52:22;;;;;;;13.07;6.82;;;;;;;13.55;69.98;100349.59;5014672;28;20053;-44
2022/11/04 03:54:47;;;;;;;12.20;7.05;;;;;;;13.50;70.08;100344.41;5014793;28;20068;-45
2022/11/04 03:57:12;;;;;;;10.95;6.60;;;;;;;13.48;70.20;100356.63;5015106;28;20030;-44
2022/11/04 03:59:38;;;;;;;11.65;6.97;;;;;;;13.50;70.08;100359.25;5014890;28;20028;-44
2022/11/04 04:02:12;;;;;;;14.50;6.65;;;;;;;13.55;69.88;100362.72;5013907;28;20093;-44
2022/11/04 04:04:45;;;;;;;11.55;6.65;;;;;;;13.64;69.57;100357.41;5014718;28;20026;-47
2022/11/04 04:07:16;;;;;;;13.48;7.65;;;;;;;13.51;69.91;100364.50;5014215;28;20024;-46
2022/11/04 04:09:53;;;;;;;12.07;7.28;;;;;;;13.46;70.59;100371.50;5014813;28;20053;-44
2022/11/04 04:12:33;;;;;;;14.80;8.23;;;;;;;13.35;71.41;100378.56;5014624;28;20036;-46
2022/11/04 04:15:25;;;;;;;14.02;7.15;;;;;;;13.53;70.62;100372.34;5015327;28;20025;-42
2022/11/04 04:18:00;;;;;;;14.45;7.70;;;;;;;13.55;70.34;100378.41;5014199;28;20038;-43
2022/11/04 04:20:29;;;;;;;14.23;7.55;;;;;;;13.51;70.63;100376.72;5013996;28;20030;-42
2022/11/04 04:23:00;;;;;;;12.63;7.68;;;;;;;13.52;70.45;100376.72;5014384;28;20029;-43
2022/11/04 04:28:16;;;;;;;13.88;7.70;;;;;;;13.49;69.93;100378.47;5014503;28;20029;-45
2022/11/04 04:30:43;;;;;;;13.73;7.00;;;;;;;13.50;69.73;100385.44;5013596;28;20040;-46
2022/11/04 04:33:12;;;;;;;15.07;7.97;;;;;;;13.36;70.19;100390.75;5014177;28;20029;-44
2022/11/04 04:35:43;;;;;;;12.95;7.07;;;;;;;13.38;69.86;100383.78;5013957;28;20493;-48
2022/11/04 04:46:42;;;;;;;17.10;8.60;;;;;;;13.15;70.39;100397.00;5013417;28;20068;-44
2022/11/04 04:49:08;;;;;;;21.85;10.20;;;;;;;12.75;72.38;100411.03;5013904;28;20077;-45
2022/11/04 04:51:39;;;;;;;16.77;9.90;;;;;;;12.80;72.01;100414.53;5013712;28;20120;-43
2022/11/04 04:54:05;;;;;;;18.70;10.60;;;;;;;12.89;71.60;100422.34;5014024;28;20101;-45
2022/11/04 04:56:30;;;;;;;16.80;9.02;;;;;;;12.99;70.35;100421.47;5013899;28;20484;-45
2022/11/04 04:58:55;;;;;;;17.70;8.75;;;;;;;12.97;69.99;100428.44;5014115;28;20018;-48
2022/11/04 05:01:21;;;;;;;17.73;9.25;;;;;;;12.96;69.95;100432.78;5013440;28;20026;-43
2022/11/04 05:03:46;;;;;;;16.63;9.10;;;;;;;12.90;70.29;100429.31;5013583;28;20018;-45
2022/11/04 05:06:11;;;;;;;15.82;8.52;;;;;;;12.86;70.12;100425.88;5013387;28;20026;-44
2022/11/04 05:08:36;;;;;;;18.58;9.13;;;;;;;12.84;70.11;100424.97;5014242;28;20041;-43
2022/11/04 05:11:02;;;;;;;17.38;9.05;;;;;;;12.89;69.97;100431.06;5012957;28;20022;-45
2022/11/04 05:13:30;;;;;;;17.58;9.50;;;;;;;12.91;70.03;100441.53;5013863;28;20478;-46
2022/11/04 05:15:56;;;;;;;19.20;9.20;;;;;;;12.90;70.69;100443.28;5014345;28;20034;-45
2022/11/04 05:18:22;;;;;;;18.13;9.50;;;;;;;12.94;70.90;100444.13;5014488;28;20025;-45
2022/11/04 05:20:47;;;;;;;16.13;9.05;;;;;;;13.05;71.18;100445.00;5014184;28;20036;-46
2022/11/04 05:23:13;;;;;;;17.38;9.93;;;;;;;13.12;71.14;100448.44;5013536;28;20018;-45
2022/11/04 05:25:40;;;;;;;19.08;9.88;;;;;;;13.17;71.43;100450.22;5014194;28;20025;-43
2022/11/04 05:28:05;;;;;;;17.88;9.82;;;;;;;13.23;71.41;100457.16;5013054;28;20026;-40
2022/11/04 05:30:31;;;;;;;17.85;9.07;;;;;;;13.16;71.84;100468.53;5012791;28;20033;-39
2022/11/04 05:32:57;;;;;;;16.38;9.25;;;;;;;13.34;71.57;100468.47;5013017;28;20076;-40
2022/11/04 05:35:22;;;;;;;16.65;8.95;;;;;;;13.43;71.54;100480.63;5012648;28;20052;-41
2022/11/04 05:37:48;;;;;;;20.25;8.63;;;;;;;13.53;71.13;100472.75;5012703;28;20026;-41
2022/11/04 05:40:13;;;;;;;17.23;8.95;;;;;;;13.50;71.32;100475.34;5011638;28;20140;-44
2022/11/04 05:42:39;;;;;;;17.55;8.27;;;;;;;13.53;71.32;100475.34;5010477;28;20021;-40
2022/11/04 05:45:05;;;;;;;15.88;7.80;;;;;;;13.36;71.58;100475.41;5011566;28;20127;-40
2022/11/04 05:47:30;;;;;;;14.93;8.35;;;;;;;13.42;71.75;100471.88;5010899;28;20069;-40
2022/11/04 05:49:55;;;;;;;18.58;7.97;;;;;;;13.41;71.55;100478.03;5011132;28;20032;-41
2022/11/04 05:52:21;;;;;;;18.75;8.35;;;;;;;13.25;72.12;100468.47;5010501;28;20024;-38
2022/11/04 05:54:46;;;;;;;16.77;8.18;;;;;;;13.35;71.83;100473.69;5011414;28;20107;-41
2022/11/04 05:57:12;;;;;;;15.00;7.38;;;;;;;13.45;70.90;100471.88;5011315;28;20105;-40
2022/11/04 05:59:37;;;;;;;17.27;8.00;;;;;;;13.41;70.36;100464.94;5010798;28;20178;-40
2022/11/04 06:02:02;;;;;;;14.88;8.40;;;;;;;13.33;70.21;100462.34;5010548;28;20029;-41
2022/11/04 06:04:28;;;;;;;16.20;8.88;;;;;;;13.26;70.07;100470.22;5010823;28;20080;-39
2022/11/04 06:06:53;;;;;;;18.17;9.38;;;;;;;13.12;70.59;100469.38;5010875;28;20022;-39
2022/11/04 06:09:18;;;;;;;18.45;8.85;;;;;;;13.10;70.24;100466.78;5010939;28;20030;-39
2022/11/04 06:11:44;;;;;;;16.45;8.70;;;;;;;13.07;70.19;100473.75;5010309;28;20041;-41
2022/11/04 06:14:10;;;;;;;15.55;7.85;;;;;;;13.01;69.88;100470.28;5008432;28;20026;-41
2022/11/04 06:16:35;;;;;;;12.00;7.50;;;;;;;12.99;69.95;100469.41;5010549;28;20108;-44
2022/11/04 06:19:01;;;;;;;19.75;9.15;;;;;;;12.93;70.21;100474.66;5010879;28;20079;-43
2022/11/04 06:21:29;;;;;;;18.63;9.68;;;;;;;12.89;70.85;100466.81;5010492;28;20370;-41
2022/11/04 06:23:56;;;;;;;19.45;9.95;;;;;;;12.89;70.94;100464.22;5011617;28;20429;-40
2022/11/04 06:26:23;;;;;;;21.33;9.93;;;;;;;12.97;70.77;100470.31;5011016;28;20038;-43
2022/11/04 06:28:48;;;;;;;22.48;10.25;;;;;;;12.91;71.01;100472.94;5010730;28;20093;-41
2022/11/04 06:31:14;;;;;;;22.15;10.68;;;;;;;12.94;71.18;100473.78;5012206;28;20123;-40
2022/11/04 06:33:40;;;;;;;16.98;8.90;;;;;;;13.02;70.65;100469.41;5012491;28;20029;-40
2022/11/04 06:36:07;;;;;;;20.35;9.10;;;;;;;13.02;70.66;100477.25;5012039;28;20117;-38
2022/11/04 06:38:34;;;;;;;24.20;9.27;;;;;;;13.06;70.66;100479.84;5011550;28;20046;-40
2022/11/04 06:40:59;;;;;;;16.38;8.93;;;;;;;13.04;70.93;100477.25;5012309;28;20025;-40
2022/11/04 06:43:25;;;;;;;16.85;8.30;;;;;;;13.09;70.96;100477.25;5011704;28;20022;-39
2022/11/04 06:45:58;;;;;;;16.17;8.73;;;;;;;13.02;71.59;100482.50;5010947;28;20030;-40
2022/11/04 06:48:23;;;;;;;15.85;8.15;;;;;;;13.20;71.24;100488.56;5011662;28;20314;-39
2022/11/04 06:50:49;;;;;;;19.60;8.13;;;;;;;13.23;71.22;100489.44;5010533;28;20121;-38
2022/11/04 06:53:14;;;;;;;16.60;7.43;;;;;;;13.31;70.95;100497.25;5010421;28;20437;-39
2022/11/04 06:55:40;;;;;;;12.88;6.88;;;;;;;13.24;71.53;100496.41;5010862;28;20036;-40
2022/11/04 06:58:05;;;;;;;15.63;6.60;;;;;;;13.08;71.60;100502.53;5010724;28;20026;-42
2022/11/04 07:00:30;;;;;;;11.98;5.63;;;;;;;13.26;71.37;100509.50;5010633;28;20036;-40
2022/11/04 07:02:56;;;;;;;12.88;5.78;;;;;;;13.34;70.69;100510.34;5011106;28;20080;-40
2022/11/04 07:05:21;;;;;;;15.38;5.53;;;;;;;13.23;71.09;100518.25;5010957;28;20496;-40
2022/11/04 07:07:46;;;;;;;17.25;5.95;;;;;;;13.26;70.91;100523.47;5011055;28;20029;-42
2022/11/04 07:10:12;;;;;;;10.93;5.35;;;;;;;13.28;70.88;100516.47;5010841;28;20030;-40
2022/11/04 07:12:37;;;;;;;14.05;6.07;;;;;;;13.24;70.54;100527.81;5010241;28;20029;-39
2022/11/04 07:15:03;;;;;;;11.30;5.32;;;;;;;13.33;70.76;100535.66;5010730;28;20108;-39
2022/11/04 07:17:29;;;;;;;15.95;6.03;;;;;;;13.37;70.90;100536.50;5011437;28;20513;-40
2022/11/04 07:19:54;;;;;;;15.38;6.65;;;;;;;13.33;70.91;100542.63;5011720;28;20112;-42
2022/11/04 07:22:19;;;;;;;12.57;6.32;;;;;;;13.49;71.05;100543.44;5011503;28;20030;-39
2022/11/04 07:24:44;;;;;;;16.92;9.18;;;;;;;13.44;71.33;100545.22;5014182;28;20033;-40
2022/11/04 07:27:10;;;;;;;22.42;9.73;;;;;;;13.21;71.94;100555.75;5016976;28;20022;-40
2022/11/04 07:29:36;;;;;;;15.55;7.93;;;;;;;13.22;72.10;100561.00;5017248;28;20038;-41
2022/11/04 07:32:01;;;;;;;18.85;8.52;;;;;;;13.51;71.82;100566.16;5015939;28;20026;-42
2022/11/04 07:34:27;;;;;;;16.42;8.88;;;;;;;13.70;71.49;100569.56;5017686;28;20034;-43
2022/11/04 07:36:53;;;;;;;14.55;7.50;;;;;;;13.40;71.47;100571.44;5016649;28;20014;-41
2022/11/04 07:39:18;;;;;;;15.98;7.45;;;;;;;13.59;71.56;100571.38;5016728;28;20060;-39
2022/11/04 07:41:43;;;;;;;12.90;7.15;;;;;;;13.80;71.28;100584.34;5015323;28;20033;-41
2022/11/04 07:44:12;;;;;;;16.27;7.38;;;;;;;13.89;71.04;100586.06;5016183;28;20081;-39
2022/11/04 07:46:37;;;;;;;13.35;7.05;;;;;;;13.89;70.90;100586.94;5015674;28;20509;-40
2022/11/04 07:49:03;;;;;;;13.55;6.40;;;;;;;13.95;70.56;100597.41;5014459;28;20026;-40
2022/11/04 07:51:31;;;;;;;12.85;6.53;;;;;;;14.14;70.25;100600.81;5013245;28;20033;-41
2022/11/04 07:53:57;;;;;;;13.68;6.13;;;;;;;14.23;69.85;100609.47;5013189;28;20048;-40
2022/11/04 07:56:23;;;;;;;17.95;6.90;;;;;;;13.88;70.06;100613.16;5014202;28;20021;-42
2022/11/04 07:58:48;;;;;;;14.68;6.75;;;;;;;13.95;70.59;100614.88;5013358;28;20030;-40
2022/11/04 08:01:17;;;;;;;16.92;7.43;;;;;;;13.75;70.62;100613.22;5012620;28;20543;-40
2022/11/04 08:03:42;;;;;;;18.00;8.20;;;;;;;13.64;71.08;100620.22;5013164;28;20026;-40
2022/11/04 08:06:10;;;;;;;16.73;9.00;;;;;;;13.47;71.69;100622.03;5012618;28;20520;-43
2022/11/04 08:08:36;;;;;;;17.98;8.68;;;;;;;13.74;71.01;100619.31;5013945;28;20064;-40
2022/11/04 08:11:07;;;;;;;14.20;7.97;;;;;;;13.77;70.72;100632.41;5012003;28;20026;-40
2022/11/04 08:13:34;;;;;;;18.45;8.38;;;;;;;13.86;70.98;100626.25;5012633;28;20061;-43
2022/11/04 08:16:02;;;;;;;15.43;8.32;;;;;;;14.00;70.95;100623.59;5012615;28;20022;-41
2022/11/04 08:18:27;;;;;;;18.38;8.20;;;;;;;14.11;70.69;100633.13;5012784;28;20109;-41
2022/11/04 08:20:53;;;;;;;15.65;8.23;;;;;;;14.11;70.74;100630.50;5012525;28;20114;-40
2022/11/04 08:23:18;;;;;;;15.52;7.78;;;;;;;14.11;70.89;100640.13;5013011;28;20068;-40
2022/11/04 08:25:44;;;;;;;14.85;7.75;;;;;;;14.38;70.54;100629.53;5012330;28;20030;-41
2022/11/04 08:28:16;;;;;;;13.75;7.57;;;;;;;14.28;70.19;100637.41;5012310;28;20030;-40
2022/11/04 08:30:54;;;;;;;14.85;6.95;;;;;;;14.62;69.57;100641.63;5012292;28;20031;-41
2022/11/04 08:33:20;;;;;;;13.50;7.47;;;;;;;14.74;68.83;100641.53;5012532;28;20096;-41
2022/11/04 08:35:46;;;;;;;19.77;6.72;;;;;;;14.76;68.34;100634.50;5011879;28;20108;-41
2022/11/04 08:38:11;;;;;;;16.23;6.60;;;;;;;14.94;68.07;100644.03;5010502;28;20026;-43
2022/11/04 08:40:37;;;;;;;15.68;6.63;;;;;;;14.95;67.60;100649.22;5011786;28;20026;-42
2022/11/04 08:43:02;;;;;;;13.00;6.63;;;;;;;15.03;67.53;100650.06;5012071;28;20025;-43
2022/11/04 08:45:27;;;;;;;11.48;6.40;;;;;;;14.98;68.36;100643.97;5012331;28;20026;-40
2022/11/04 08:47:53;;;;;;;13.32;6.53;;;;;;;15.25;67.75;100655.09;5011940;28;20474;-40
2022/11/04 08:50:18;;;;;;;10.85;6.30;;;;;;;15.39;67.14;100661.97;5011898;28;20026;-38
2022/11/04 08:52:44;;;;;;;12.02;6.40;;;;;;;15.37;67.10;100657.59;5010444;28;20084;-39
2022/11/04 08:55:09;;;;;;;11.23;6.13;;;;;;;15.17;67.79;100664.81;5011936;28;20033;-40
2022/11/04 08:57:34;;;;;;;16.17;6.28;;;;;;;15.13;66.97;100665.72;5011652;28;20334;-41
2022/11/04 09:00:00;;;;;;;14.13;6.05;;;;;;;15.07;68.59;100665.75;5012557;28;20104;-42
2022/11/04 09:02:25;;;;;;;8.35;5.07;;;;;;;15.83;65.20;100660.69;5011806;28;20481;-43
2022/11/04 09:04:51;;;;;;;9.32;5.28;;;;;;;15.22;66.32;100669.16;5011887;28;20036;-40
2022/11/04 09:07:16;;;;;;;9.93;5.10;;;;;;;15.36;66.62;100672.53;5011684;28;20406;-42
2022/11/04 09:09:42;;;;;;;9.40;4.95;;;;;;;15.53;66.49;100672.38;5011750;28;20453;-41
2022/11/04 09:12:09;;;;;;;9.13;5.32;;;;;;;15.29;67.18;100667.34;5025917;22;20096;-46
2022/11/04 09:14:35;;;;;;;10.05;4.95;;;;;;;15.37;67.65;100674.25;5013459;28;20490;-44
2022/11/04 09:17:00;;;;;;;8.52;4.28;;;;;;;15.58;66.95;100675.84;5010694;28;20097;-44
2022/11/04 09:19:25;;;;;;;7.90;4.45;;;;;;;15.42;65.48;100672.47;5012178;28;20113;-48
2022/11/04 09:21:51;;;;;;;10.82;5.03;;;;;;;15.55;65.47;100673.25;5011899;28;20026;-45
2022/11/04 09:24:16;;;;;;;9.30;4.90;;;;;;;15.63;65.83;100681.03;5010506;28;20064;-45
2022/11/04 09:26:43;;;;;;;7.70;5.00;;;;;;;15.48;66.92;100682.03;5010094;28;20040;-47
2022/11/04 09:29:09;;;;;;;8.60;5.20;;;;;;;15.70;66.79;100687.97;5010308;28;20021;-43
2022/11/04 09:31:34;;;;;;;9.98;6.10;;;;;;;15.90;66.53;100687.78;5009901;28;20022;-43
2022/11/04 09:34:00;;;;;;;11.65;5.45;;;;;;;16.09;66.00;100690.16;5009839;28;20030;-47
2022/11/04 09:36:25;;;;;;;14.15;5.28;;;;;;;15.97;65.48;100697.34;5009936;28;20121;-43
2022/11/04 09:38:51;;;;;;;9.20;4.93;;;;;;;16.15;64.90;100694.47;5009838;28;20037;-44
2022/11/04 09:41:38;;;;;;;9.45;4.70;;;;;;;16.13;64.60;100696.25;5009790;28;20537;-47
2022/11/04 09:44:06;;;;;;;8.80;4.43;;;;;;;16.08;65.59;100700.69;5012376;28;20057;-42
2022/11/04 09:46:32;;;;;;;7.32;4.30;;;;;;;15.83;66.19;100708.00;5012337;28;20417;-42
2022/11/04 09:49:01;;;;;;;8.50;4.15;;;;;;;16.16;65.21;100717.28;5010774;28;20025;-44
2022/11/04 09:51:27;;;;;;;7.07;4.05;;;;;;;16.15;64.33;100719.03;5010284;28;20033;-47
2022/11/04 09:54:11;;;;;;;10.10;3.88;;;;;;;16.15;63.09;100719.03;5010885;28;20042;-43
2022/11/04 09:56:41;;;;;;;11.00;4.33;;;;;;;16.35;64.32;100726.66;5011921;28;20382;-43
2022/11/04 09:59:16;;;;;;;7.35;3.92;;;;;;;16.30;64.21;100727.59;5011968;28;20029;-43
2022/11/04 10:01:48;;;;;;;7.05;3.50;;;;;;;16.20;64.18;100738.25;5011473;28;20076;-49
2022/11/04 10:04:19;;;;;;;6.28;3.63;;;;;;;16.35;63.52;100741.56;5011396;28;20017;-43
2022/11/04 10:07:05;;;;;;;7.40;3.53;;;;;;;16.10;63.50;100749.75;5016161;28;20056;-48
2022/11/04 10:09:55;;;;;;;6.25;3.35;;;;;;;15.74;64.22;100750.13;5014324;28;20025;-47
2022/11/04 10:12:47;;;;;;;8.50;3.38;;;;;;;15.89;63.78;100759.63;4981382;28;1041976;-46
2022/11/04 10:15:15;;;;;;;8.55;3.08;;;;;;;16.09;63.68;100766.44;5018845;28;20642;-46
2022/11/04 10:17:49;;;;;;;7.55;3.45;;;;;;;16.21;63.43;100786.47;5021013;28;20053;-48
2022/11/04 10:20:35;;;;;;;7.57;3.42;;;;;;;16.28;63.17;100782.00;5028952;28;20042;-43
2022/11/04 10:23:24;;;;;;;6.82;3.40;;;;;;;16.46;62.82;100793.19;5022140;28;20094;-42
2022/11/04 10:26:13;;;;;;;6.40;2.95;;;;;;;16.55;62.48;100787.81;5011361;28;20478;-45
2022/11/04 10:29:00;;;;;;;6.82;2.42;;;;;;;16.77;62.16;100785.78;5010317;28;20025;-41
2022/11/04 10:31:25;;;;;;;5.43;2.60;;;;;;;16.90;61.36;100791.75;5010107;28;20058;-49
2022/11/04 10:33:56;;;;;;;6.50;2.92;;;;;;;16.88;63.52;100783.03;5010326;28;20045;-47
2022/11/04 10:36:22;;;;;;;7.75;3.30;;;;;;;16.88;62.44;100788.31;5010178;28;20076;-47
2022/11/04 10:38:51;;;;;;;6.22;3.00;;;;;;;16.92;61.28;100785.59;5010293;28;20021;-47
2022/11/04 10:41:22;;;;;;;5.18;2.50;;;;;;;17.08;60.38;100788.88;5009791;28;20064;-43
2022/11/04 10:43:51;;;;;;;5.07;3.20;;;;;;;17.20;59.63;100793.13;5010442;28;20022;-49
2022/11/04 10:46:31;;;;;;;6.32;2.83;;;;;;;16.93;61.61;100807.53;5010169;28;20494;-46
2022/11/04 10:49:24;;;;;;;7.75;2.55;;;;;;;17.16;61.65;100808.06;5010018;28;20083;-44
2022/11/04 10:51:49;;;;;;;7.55;2.50;;;;;;;17.34;60.73;100822.75;5009762;28;20079;-43
2022/11/04 10:54:15;;;;;;;5.05;2.30;;;;;;;17.31;60.93;100817.53;5010729;28;20026;-47
2022/11/04 10:56:46;;;;;;;5.13;2.10;;;;;;;17.34;59.13;100820.97;5012675;28;20060;-47
2022/11/04 10:59:41;;;;;;;6.15;1.98;;;;;;;17.56;57.82;100831.19;5012473;28;20077;-42
2022/11/04 11:02:06;;;;;;;6.53;2.05;;;;;;;17.44;58.53;100827.00;5015998;28;20311;-42
2022/11/04 11:04:34;;;;;;;4.97;2.08;;;;;;;16.83;61.47;100834.91;5016735;28;20052;-43
2022/11/04 11:07:05;;;;;;;5.75;1.27;;;;;;;15.69;59.00;100847.44;5017978;28;20030;-44
2022/11/04 11:09:39;;;;;;;5.70;1.00;;;;;;;15.05;60.86;100846.09;5016993;28;20073;-44
2022/11/04 11:12:17;;;;;;;4.47;0.90;;;;;;;14.84;64.38;100853.16;5015498;28;20037;-45
2022/11/04 11:14:42;;;;;;;3.50;1.13;;;;;;;15.05;65.50;100851.34;5013898;28;20054;-46
2022/11/04 11:17:37;;;;;;;4.40;1.10;;;;;;;15.29;66.21;100849.44;5012383;28;20482;-49
2022/11/04 11:20:19;;;;;;;3.25;0.90;;;;;;;15.44;66.05;100858.97;5003432;28;20373;-42
2022/11/04 11:22:47;;;;;;;2.47;0.90;;;;;;;15.54;66.66;100862.44;5013434;28;20018;-45
2022/11/04 11:25:27;;;;;;;2.58;1.00;;;;;;;15.74;66.50;100864.03;5013958;28;20026;-44
2022/11/04 11:28:00;;;;;;;2.25;1.00;;;;;;;15.66;66.96;100870.25;5013807;28;20065;-45
2022/11/04 11:30:44;;;;;;;3.10;1.00;;;;;;;15.56;67.09;100879.94;5013365;28;20021;-44
2022/11/04 11:33:26;;;;;;;1.63;0.80;;;;;;;15.48;66.63;100879.09;5013450;28;20034;-45
2022/11/04 11:36:03;;;;;;;3.38;0.93;;;;;;;15.48;67.28;100884.34;5013585;28;20438;-46
2022/11/04 11:38:30;;;;;;;2.95;1.10;;;;;;;15.36;66.86;100884.44;5014171;28;20409;-46
2022/11/04 11:41:10;;;;;;;3.72;1.27;;;;;;;15.58;66.52;100891.31;5013668;28;20033;-47
2022/11/04 11:43:39;;;;;;;3.45;1.13;;;;;;;15.75;65.48;100893.81;5014245;28;20034;-45
2022/11/04 11:46:05;;;;;;;2.65;0.98;;;;;;;15.75;65.36;100910.47;5013718;28;20029;-42
2022/11/04 11:48:41;;;;;;;3.00;1.00;;;;;;;15.62;64.76;100923.69;5013846;28;20030;-44
2022/11/04 11:51:12;;;;;;;3.53;0.90;;;;;;;15.90;63.98;100922.63;5013204;28;20018;-44
2022/11/04 11:53:44;;;;;;;1.90;0.85;;;;;;;15.82;63.94;100924.44;5012811;28;20022;-44
2022/11/04 11:56:28;;;;;;;3.03;0.85;;;;;;;15.57;64.19;100917.59;5012801;28;20046;-45
2022/11/04 11:59:06;;;;;;;2.80;0.70;;;;;;;15.38;62.58;100917.66;5012684;28;20101;-48
2022/11/04 12:01:41;;;;;;;1.73;0.80;;;;;;;15.04;65.21;100929.22;5012290;28;20030;-43
2022/11/04 12:04:07;;;;;;;3.00;0.88;;;;;;;15.29;64.61;100924.75;5012788;28;20018;-46